sensor_id;sensor_type;location;lat;lon;timestamp;P1;durP1;ratioP1;P2;durP2;ratioP2
34902;SDS011;21114;44.840;0.214;2023-02-01T00:00:32;6.45;;;3.92;;
34902;SDS011;21114;44.840;0.214;2023-02-01T00:02:59;4.47;;;2.88;;
34902;SDS011;21114;44.840;0.214;2023-02-01T00:05:25;2.58;;;2.38;;
34902;SDS011;21114;44.840;0.214;2023-02-01T00:07:51;5.78;;;2.80;;
34902;SDS011;21114;44.840;0.214;2023-02-01T00:10:17;4.30;;;2.50;;
34902;SDS011;21114;44.840;0.214;2023-02-01T00:12:44;5.13;;;3.22;;
34902;SDS011;21114;44.840;0.214;2023-02-01T00:15:10;4.00;;;2.92;;
34902;SDS011;21114;44.840;0.214;2023-02-01T00:17:36;6.30;;;3.70;;
34902;SDS011;21114;44.840;0.214;2023-02-01T00:20:02;4.80;;;3.03;;
34902;SDS011;21114;44.840;0.214;2023-02-01T00:22:28;3.35;;;2.50;;
34902;SDS011;21114;44.840;0.214;2023-02-01T00:24:54;3.50;;;2.70;;
34902;SDS011;21114;44.840;0.214;2023-02-01T00:27:21;3.38;;;2.38;;
34902;SDS011;21114;44.840;0.214;2023-02-01T00:29:47;4.50;;;3.97;;
34902;SDS011;21114;44.840;0.214;2023-02-01T00:32:13;3.20;;;2.42;;
34902;SDS011;21114;44.840;0.214;2023-02-01T00:34:39;4.78;;;2.70;;
34902;SDS011;21114;44.840;0.214;2023-02-01T00:37:05;6.30;;;3.85;;
34902;SDS011;21114;44.840;0.214;2023-02-01T00:39:32;7.30;;;4.70;;
34902;SDS011;21114;44.840;0.214;2023-02-01T00:41:59;3.72;;;3.42;;
34902;SDS011;21114;44.840;0.214;2023-02-01T00:45:13;5.30;;;3.90;;
34902;SDS011;21114;44.840;0.214;2023-02-01T00:47:39;6.18;;;3.45;;
34902;SDS011;21114;44.840;0.214;2023-02-01T00:50:05;4.57;;;3.88;;
34902;SDS011;21114;44.840;0.214;2023-02-01T00:52:32;5.97;;;3.75;;
34902;SDS011;21114;44.840;0.214;2023-02-01T00:54:58;5.13;;;3.63;;
34902;SDS011;21114;44.840;0.214;2023-02-01T00:57:24;5.75;;;4.35;;
34902;SDS011;21114;44.840;0.214;2023-02-01T00:59:50;7.70;;;4.18;;
34902;SDS011;21114;44.840;0.214;2023-02-01T01:02:16;4.95;;;3.53;;
34902;SDS011;21114;44.840;0.214;2023-02-01T01:04:42;8.13;;;3.60;;
34902;SDS011;21114;44.840;0.214;2023-02-01T01:07:08;6.00;;;4.75;;
34902;SDS011;21114;44.840;0.214;2023-02-01T01:09:34;10.85;;;6.50;;
34902;SDS011;21114;44.840;0.214;2023-02-01T01:12:00;7.00;;;3.50;;
34902;SDS011;21114;44.840;0.214;2023-02-01T01:14:28;9.73;;;4.35;;
34902;SDS011;21114;44.840;0.214;2023-02-01T01:17:42;8.18;;;3.53;;
34902;SDS011;21114;44.840;0.214;2023-02-01T01:20:09;4.68;;;3.30;;
34902;SDS011;21114;44.840;0.214;2023-02-01T01:23:23;6.10;;;4.05;;
34902;SDS011;21114;44.840;0.214;2023-02-01T01:25:49;6.28;;;4.28;;
34902;SDS011;21114;44.840;0.214;2023-02-01T01:28:15;5.25;;;3.70;;
34902;SDS011;21114;44.840;0.214;2023-02-01T01:30:42;8.27;;;3.60;;
34902;SDS011;21114;44.840;0.214;2023-02-01T01:33:08;9.05;;;5.05;;
34902;SDS011;21114;44.840;0.214;2023-02-01T01:35:34;6.78;;;4.22;;
34902;SDS011;21114;44.840;0.214;2023-02-01T01:38:00;6.55;;;4.10;;
34902;SDS011;21114;44.840;0.214;2023-02-01T01:40:27;4.88;;;3.55;;
34902;SDS011;21114;44.840;0.214;2023-02-01T01:42:53;7.32;;;4.18;;
34902;SDS011;21114;44.840;0.214;2023-02-01T01:48:08;6.97;;;4.63;;
34902;SDS011;21114;44.840;0.214;2023-02-01T01:51:24;6.82;;;3.97;;
34902;SDS011;21114;44.840;0.214;2023-02-01T01:54:42;6.97;;;4.13;;
34902;SDS011;21114;44.840;0.214;2023-02-01T01:57:58;7.35;;;3.70;;
34902;SDS011;21114;44.840;0.214;2023-02-01T02:01:14;7.75;;;4.53;;
34902;SDS011;21114;44.840;0.214;2023-02-01T02:04:28;7.70;;;4.82;;
34902;SDS011;21114;44.840;0.214;2023-02-01T02:06:57;6.47;;;4.18;;
34902;SDS011;21114;44.840;0.214;2023-02-01T02:10:14;8.63;;;3.70;;
34902;SDS011;21114;44.840;0.214;2023-02-01T02:27:03;6.90;;;3.63;;
34902;SDS011;21114;44.840;0.214;2023-02-01T02:44:21;7.30;;;3.65;;
34902;SDS011;21114;44.840;0.214;2023-02-01T02:50:46;6.72;;;4.28;;
34902;SDS011;21114;44.840;0.214;2023-02-01T02:54:32;5.68;;;3.13;;
34902;SDS011;21114;44.840;0.214;2023-02-01T02:57:48;6.43;;;4.57;;
34902;SDS011;21114;44.840;0.214;2023-02-01T03:00:41;8.05;;;4.75;;
34902;SDS011;21114;44.840;0.214;2023-02-01T03:03:36;7.68;;;3.80;;
34902;SDS011;21114;44.840;0.214;2023-02-01T03:06:52;8.73;;;4.78;;
34902;SDS011;21114;44.840;0.214;2023-02-01T03:10:07;10.82;;;5.28;;
34902;SDS011;21114;44.840;0.214;2023-02-01T03:18:52;10.15;;;4.43;;
34902;SDS011;21114;44.840;0.214;2023-02-01T03:22:12;7.53;;;5.20;;
34902;SDS011;21114;44.840;0.214;2023-02-01T03:25:28;11.88;;;4.30;;
34902;SDS011;21114;44.840;0.214;2023-02-01T03:28:49;14.10;;;5.88;;
34902;SDS011;21114;44.840;0.214;2023-02-01T03:31:48;7.32;;;4.05;;
34902;SDS011;21114;44.840;0.214;2023-02-01T03:35:33;11.10;;;5.13;;
34902;SDS011;21114;44.840;0.214;2023-02-01T03:38:52;7.50;;;4.55;;
34902;SDS011;21114;44.840;0.214;2023-02-01T03:41:51;9.18;;;4.85;;
34902;SDS011;21114;44.840;0.214;2023-02-01T03:45:10;10.50;;;5.53;;
34902;SDS011;21114;44.840;0.214;2023-02-01T03:48:27;9.25;;;4.43;;
34902;SDS011;21114;44.840;0.214;2023-02-01T03:51:33;7.15;;;5.05;;
34902;SDS011;21114;44.840;0.214;2023-02-01T03:53:59;11.73;;;5.57;;
34902;SDS011;21114;44.840;0.214;2023-02-01T03:57:16;10.55;;;4.93;;
34902;SDS011;21114;44.840;0.214;2023-02-01T04:00:32;6.15;;;4.10;;
34902;SDS011;21114;44.840;0.214;2023-02-01T04:02:59;8.50;;;4.63;;
34902;SDS011;21114;44.840;0.214;2023-02-01T04:05:25;9.15;;;4.88;;
34902;SDS011;21114;44.840;0.214;2023-02-01T04:07:51;8.90;;;5.15;;
34902;SDS011;21114;44.840;0.214;2023-02-01T04:10:19;11.15;;;5.97;;
34902;SDS011;21114;44.840;0.214;2023-02-01T04:12:45;7.50;;;5.47;;
34902;SDS011;21114;44.840;0.214;2023-02-01T04:15:11;6.88;;;5.03;;
34902;SDS011;21114;44.840;0.214;2023-02-01T04:17:37;13.35;;;6.40;;
34902;SDS011;21114;44.840;0.214;2023-02-01T04:20:03;12.35;;;4.82;;
34902;SDS011;21114;44.840;0.214;2023-02-01T04:22:30;9.73;;;6.10;;
34902;SDS011;21114;44.840;0.214;2023-02-01T04:24:56;10.63;;;5.20;;
34902;SDS011;21114;44.840;0.214;2023-02-01T04:27:22;7.40;;;5.57;;
34902;SDS011;21114;44.840;0.214;2023-02-01T04:29:48;6.82;;;5.20;;
34902;SDS011;21114;44.840;0.214;2023-02-01T04:32:16;17.42;;;7.35;;
34902;SDS011;21114;44.840;0.214;2023-02-01T04:35:13;10.63;;;5.32;;
34902;SDS011;21114;44.840;0.214;2023-02-01T04:37:40;12.95;;;6.97;;
34902;SDS011;21114;44.840;0.214;2023-02-01T04:40:06;10.88;;;6.05;;
34902;SDS011;21114;44.840;0.214;2023-02-01T04:42:32;9.88;;;6.72;;
34902;SDS011;21114;44.840;0.214;2023-02-01T04:44:58;7.50;;;5.53;;
34902;SDS011;21114;44.840;0.214;2023-02-01T04:47:24;8.88;;;5.95;;
34902;SDS011;21114;44.840;0.214;2023-02-01T04:49:51;11.20;;;5.07;;
34902;SDS011;21114;44.840;0.214;2023-02-01T04:52:17;13.07;;;6.00;;
34902;SDS011;21114;44.840;0.214;2023-02-01T04:54:43;12.68;;;5.35;;
34902;SDS011;21114;44.840;0.214;2023-02-01T04:57:09;10.73;;;6.07;;
34902;SDS011;21114;44.840;0.214;2023-02-01T04:59:38;14.00;;;6.28;;
34902;SDS011;21114;44.840;0.214;2023-02-01T05:02:04;8.15;;;5.63;;
34902;SDS011;21114;44.840;0.214;2023-02-01T05:04:30;10.30;;;6.80;;
34902;SDS011;21114;44.840;0.214;2023-02-01T05:06:56;8.38;;;5.05;;
34902;SDS011;21114;44.840;0.214;2023-02-01T05:09:22;8.45;;;5.30;;
34902;SDS011;21114;44.840;0.214;2023-02-01T05:11:48;9.98;;;5.53;;
34902;SDS011;21114;44.840;0.214;2023-02-01T05:14:42;11.75;;;5.57;;
34902;SDS011;21114;44.840;0.214;2023-02-01T05:17:08;11.65;;;6.60;;
34902;SDS011;21114;44.840;0.214;2023-02-01T05:19:34;10.15;;;6.43;;
34902;SDS011;21114;44.840;0.214;2023-02-01T05:22:00;15.48;;;8.32;;
34902;SDS011;21114;44.840;0.214;2023-02-01T05:24:26;10.88;;;5.65;;
34902;SDS011;21114;44.840;0.214;2023-02-01T05:26:52;9.50;;;7.07;;
34902;SDS011;21114;44.840;0.214;2023-02-01T05:29:19;14.45;;;7.07;;
34902;SDS011;21114;44.840;0.214;2023-02-01T05:31:45;10.15;;;6.10;;
34902;SDS011;21114;44.840;0.214;2023-02-01T05:35:00;13.13;;;5.72;;
34902;SDS011;21114;44.840;0.214;2023-02-01T05:37:26;16.20;;;7.38;;
34902;SDS011;21114;44.840;0.214;2023-02-01T05:39:52;7.40;;;5.97;;
34902;SDS011;21114;44.840;0.214;2023-02-01T05:42:19;11.82;;;6.47;;
34902;SDS011;21114;44.840;0.214;2023-02-01T05:44:45;11.27;;;7.20;;
34902;SDS011;21114;44.840;0.214;2023-02-01T05:47:11;8.93;;;5.95;;
34902;SDS011;21114;44.840;0.214;2023-02-01T05:49:37;13.25;;;6.85;;
34902;SDS011;21114;44.840;0.214;2023-02-01T05:52:03;12.43;;;5.90;;
34902;SDS011;21114;44.840;0.214;2023-02-01T05:54:30;9.77;;;6.85;;
34902;SDS011;21114;44.840;0.214;2023-02-01T05:56:56;10.52;;;6.95;;
34902;SDS011;21114;44.840;0.214;2023-02-01T05:59:22;13.45;;;8.07;;
34902;SDS011;21114;44.840;0.214;2023-02-01T06:01:48;11.13;;;6.78;;
34902;SDS011;21114;44.840;0.214;2023-02-01T06:04:14;9.60;;;6.90;;
34902;SDS011;21114;44.840;0.214;2023-02-01T06:06:40;11.23;;;8.10;;
34902;SDS011;21114;44.840;0.214;2023-02-01T06:09:06;11.93;;;6.78;;
34902;SDS011;21114;44.840;0.214;2023-02-01T06:11:32;7.18;;;6.43;;
34902;SDS011;21114;44.840;0.214;2023-02-01T06:13:59;9.98;;;5.93;;
34902;SDS011;21114;44.840;0.214;2023-02-01T06:16:25;9.05;;;6.15;;
34902;SDS011;21114;44.840;0.214;2023-02-01T06:18:51;10.98;;;6.35;;
34902;SDS011;21114;44.840;0.214;2023-02-01T06:21:17;11.75;;;6.88;;
34902;SDS011;21114;44.840;0.214;2023-02-01T06:23:50;14.55;;;8.68;;
34902;SDS011;21114;44.840;0.214;2023-02-01T06:27:06;13.60;;;6.90;;
34902;SDS011;21114;44.840;0.214;2023-02-01T06:29:32;30.40;;;24.05;;
34902;SDS011;21114;44.840;0.214;2023-02-01T06:31:58;19.65;;;13.32;;
34902;SDS011;21114;44.840;0.214;2023-02-01T06:34:25;11.00;;;8.70;;
34902;SDS011;21114;44.840;0.214;2023-02-01T06:36:51;17.25;;;12.30;;
34902;SDS011;21114;44.840;0.214;2023-02-01T06:39:17;18.00;;;12.32;;
34902;SDS011;21114;44.840;0.214;2023-02-01T06:41:50;17.00;;;9.90;;
34902;SDS011;21114;44.840;0.214;2023-02-01T06:45:05;17.52;;;10.20;;
34902;SDS011;21114;44.840;0.214;2023-02-01T06:47:32;13.85;;;8.52;;
34902;SDS011;21114;44.840;0.214;2023-02-01T06:49:58;13.60;;;7.55;;
34902;SDS011;21114;44.840;0.214;2023-02-01T06:52:26;11.65;;;8.57;;
34902;SDS011;21114;44.840;0.214;2023-02-01T06:55:41;14.50;;;8.10;;
34902;SDS011;21114;44.840;0.214;2023-02-01T06:58:07;13.48;;;8.90;;
34902;SDS011;21114;44.840;0.214;2023-02-01T07:00:33;17.35;;;8.05;;
34902;SDS011;21114;44.840;0.214;2023-02-01T07:03:00;10.48;;;6.55;;
34902;SDS011;21114;44.840;0.214;2023-02-01T07:05:27;9.68;;;7.00;;
34902;SDS011;21114;44.840;0.214;2023-02-01T07:07:53;10.77;;;6.85;;
34902;SDS011;21114;44.840;0.214;2023-02-01T07:10:19;13.88;;;9.25;;
34902;SDS011;21114;44.840;0.214;2023-02-01T07:12:45;15.20;;;8.52;;
34902;SDS011;21114;44.840;0.214;2023-02-01T07:15:11;17.45;;;10.10;;
34902;SDS011;21114;44.840;0.214;2023-02-01T07:17:37;13.60;;;8.75;;
34902;SDS011;21114;44.840;0.214;2023-02-01T07:20:03;11.90;;;8.65;;
34902;SDS011;21114;44.840;0.214;2023-02-01T07:22:30;13.13;;;8.25;;
34902;SDS011;21114;44.840;0.214;2023-02-01T07:24:56;12.57;;;7.70;;
34902;SDS011;21114;44.840;0.214;2023-02-01T07:27:22;12.23;;;8.60;;
34902;SDS011;21114;44.840;0.214;2023-02-01T07:29:50;14.07;;;8.70;;
34902;SDS011;21114;44.840;0.214;2023-02-01T07:32:17;11.13;;;8.20;;
34902;SDS011;21114;44.840;0.214;2023-02-01T07:34:44;13.77;;;8.57;;
34902;SDS011;21114;44.840;0.214;2023-02-01T07:37:49;14.63;;;9.90;;
34902;SDS011;21114;44.840;0.214;2023-02-01T07:40:15;19.13;;;11.18;;
34902;SDS011;21114;44.840;0.214;2023-02-01T07:42:41;16.63;;;14.10;;
34902;SDS011;21114;44.840;0.214;2023-02-01T07:45:07;17.58;;;13.90;;
34902;SDS011;21114;44.840;0.214;2023-02-01T07:47:33;18.20;;;15.95;;
34902;SDS011;21114;44.840;0.214;2023-02-01T07:49:59;19.77;;;17.38;;
34902;SDS011;21114;44.840;0.214;2023-02-01T07:52:27;20.42;;;16.00;;
34902;SDS011;21114;44.840;0.214;2023-02-01T07:55:42;18.33;;;15.68;;
34902;SDS011;21114;44.840;0.214;2023-02-01T07:58:08;19.23;;;14.75;;
34902;SDS011;21114;44.840;0.214;2023-02-01T08:00:34;15.38;;;13.60;;
34902;SDS011;21114;44.840;0.214;2023-02-01T08:03:28;17.15;;;11.32;;
34902;SDS011;21114;44.840;0.214;2023-02-01T08:05:55;15.73;;;11.45;;
34902;SDS011;21114;44.840;0.214;2023-02-01T08:09:10;14.90;;;9.73;;
34902;SDS011;21114;44.840;0.214;2023-02-01T08:12:25;15.30;;;12.68;;
34902;SDS011;21114;44.840;0.214;2023-02-01T08:14:52;20.58;;;16.27;;
34902;SDS011;21114;44.840;0.214;2023-02-01T08:17:19;21.15;;;15.10;;
34902;SDS011;21114;44.840;0.214;2023-02-01T08:19:45;25.15;;;16.52;;
34902;SDS011;21114;44.840;0.214;2023-02-01T08:22:11;19.75;;;15.80;;
34902;SDS011;21114;44.840;0.214;2023-02-01T08:24:37;18.73;;;16.35;;
34902;SDS011;21114;44.840;0.214;2023-02-01T08:27:05;24.98;;;16.33;;
34902;SDS011;21114;44.840;0.214;2023-02-01T08:29:31;20.17;;;17.92;;
34902;SDS011;21114;44.840;0.214;2023-02-01T08:31:57;18.15;;;12.52;;
34902;SDS011;21114;44.840;0.214;2023-02-01T08:34:24;15.23;;;11.85;;
34902;SDS011;21114;44.840;0.214;2023-02-01T08:36:50;13.40;;;10.40;;
34902;SDS011;21114;44.840;0.214;2023-02-01T08:40:06;15.20;;;11.18;;
34902;SDS011;21114;44.840;0.214;2023-02-01T08:43:21;21.25;;;12.43;;
34902;SDS011;21114;44.840;0.214;2023-02-01T08:45:48;21.83;;;13.75;;
34902;SDS011;21114;44.840;0.214;2023-02-01T08:48:17;16.73;;;13.40;;
34902;SDS011;21114;44.840;0.214;2023-02-01T08:50:43;18.70;;;13.43;;
34902;SDS011;21114;44.840;0.214;2023-02-01T08:53:09;29.02;;;16.15;;
34902;SDS011;21114;44.840;0.214;2023-02-01T08:55:38;25.90;;;17.23;;
34902;SDS011;21114;44.840;0.214;2023-02-01T08:58:04;21.77;;;18.50;;
34902;SDS011;21114;44.840;0.214;2023-02-01T09:00:30;24.58;;;18.75;;
34902;SDS011;21114;44.840;0.214;2023-02-01T09:02:57;23.48;;;17.20;;
34902;SDS011;21114;44.840;0.214;2023-02-01T09:05:23;21.65;;;15.48;;
34902;SDS011;21114;44.840;0.214;2023-02-01T09:07:52;21.17;;;15.82;;
34902;SDS011;21114;44.840;0.214;2023-02-01T09:11:07;15.20;;;10.02;;
34902;SDS011;21114;44.840;0.214;2023-02-01T09:14:22;22.20;;;16.40;;
34902;SDS011;21114;44.840;0.214;2023-02-01T09:16:48;19.98;;;16.42;;
34902;SDS011;21114;44.840;0.214;2023-02-01T09:19:15;17.33;;;14.85;;
34902;SDS011;21114;44.840;0.214;2023-02-01T09:21:41;18.33;;;12.20;;
34902;SDS011;21114;44.840;0.214;2023-02-01T09:24:09;14.57;;;10.88;;
34902;SDS011;21114;44.840;0.214;2023-02-01T09:27:24;13.15;;;9.85;;
34902;SDS011;21114;44.840;0.214;2023-02-01T09:29:50;15.77;;;11.70;;
34902;SDS011;21114;44.840;0.214;2023-02-01T09:32:19;13.45;;;11.10;;
34902;SDS011;21114;44.840;0.214;2023-02-01T09:35:33;20.77;;;12.45;;
34902;SDS011;21114;44.840;0.214;2023-02-01T09:37:59;18.90;;;12.60;;
34902;SDS011;21114;44.840;0.214;2023-02-01T09:40:26;16.67;;;12.25;;
34902;SDS011;21114;44.840;0.214;2023-02-01T09:43:02;20.90;;;15.70;;
34902;SDS011;21114;44.840;0.214;2023-02-01T09:48:56;27.15;;;21.15;;
34902;SDS011;21114;44.840;0.214;2023-02-01T09:52:11;19.40;;;15.93;;
34902;SDS011;21114;44.840;0.214;2023-02-01T09:55:32;17.80;;;13.27;;
34902;SDS011;21114;44.840;0.214;2023-02-01T09:58:52;20.35;;;12.15;;
34902;SDS011;21114;44.840;0.214;2023-02-01T10:02:12;16.52;;;11.20;;
34902;SDS011;21114;44.840;0.214;2023-02-01T10:05:37;16.23;;;10.60;;
34902;SDS011;21114;44.840;0.214;2023-02-01T10:11:41;16.10;;;10.65;;
34902;SDS011;21114;44.840;0.214;2023-02-01T10:28:54;16.73;;;10.77;;
34902;SDS011;21114;44.840;0.214;2023-02-01T10:32:13;19.70;;;10.43;;
34902;SDS011;21114;44.840;0.214;2023-02-01T10:35:28;13.00;;;9.50;;
34902;SDS011;21114;44.840;0.214;2023-02-01T10:38:44;19.13;;;10.85;;
34902;SDS011;21114;44.840;0.214;2023-02-01T10:41:12;17.08;;;9.80;;
34902;SDS011;21114;44.840;0.214;2023-02-01T10:44:05;13.10;;;10.63;;
34902;SDS011;21114;44.840;0.214;2023-02-01T10:47:21;19.42;;;9.75;;
34902;SDS011;21114;44.840;0.214;2023-02-01T10:52:36;16.13;;;9.73;;
34902;SDS011;21114;44.840;0.214;2023-02-01T10:55:51;16.05;;;8.10;;
34902;SDS011;21114;44.840;0.214;2023-02-01T10:59:13;15.65;;;9.93;;
34902;SDS011;21114;44.840;0.214;2023-02-01T11:02:31;18.98;;;10.38;;
34902;SDS011;21114;44.840;0.214;2023-02-01T11:05:48;14.65;;;10.60;;
34902;SDS011;21114;44.840;0.214;2023-02-01T11:08:15;16.35;;;11.27;;
34902;SDS011;21114;44.840;0.214;2023-02-01T11:11:31;15.02;;;9.38;;
34902;SDS011;21114;44.840;0.214;2023-02-01T11:13:59;15.25;;;8.85;;
34902;SDS011;21114;44.840;0.214;2023-02-01T11:19:58;10.93;;;7.68;;
34902;SDS011;21114;44.840;0.214;2023-02-01T11:22:47;16.05;;;8.05;;
34902;SDS011;21114;44.840;0.214;2023-02-01T11:26:10;15.15;;;8.07;;
34902;SDS011;21114;44.840;0.214;2023-02-01T11:29:25;8.18;;;5.28;;
34902;SDS011;21114;44.840;0.214;2023-02-01T11:32:40;7.70;;;6.55;;
34902;SDS011;21114;44.840;0.214;2023-02-01T11:35:06;12.23;;;7.43;;
34902;SDS011;21114;44.840;0.214;2023-02-01T11:37:34;10.80;;;8.10;;
34902;SDS011;21114;44.840;0.214;2023-02-01T11:40:50;9.25;;;6.70;;
34902;SDS011;21114;44.840;0.214;2023-02-01T11:43:18;11.98;;;6.50;;
34902;SDS011;21114;44.840;0.214;2023-02-01T11:46:34;10.50;;;6.88;;
34902;SDS011;21114;44.840;0.214;2023-02-01T11:49:50;11.18;;;6.75;;
34902;SDS011;21114;44.840;0.214;2023-02-01T11:56:05;12.75;;;6.28;;
34902;SDS011;21114;44.840;0.214;2023-02-01T12:04:59;11.75;;;5.45;;
34902;SDS011;21114;44.840;0.214;2023-02-01T12:11:07;10.30;;;6.40;;
34902;SDS011;21114;44.840;0.214;2023-02-01T12:14:29;10.60;;;7.00;;
34902;SDS011;21114;44.840;0.214;2023-02-01T12:39:48;5.32;;;3.70;;
34902;SDS011;21114;44.840;0.214;2023-02-01T12:46:15;7.85;;;5.32;;
34902;SDS011;21114;44.840;0.214;2023-02-01T12:52:27;8.18;;;4.63;;
34902;SDS011;21114;44.840;0.214;2023-02-01T12:55:47;8.45;;;4.63;;
34902;SDS011;21114;44.840;0.214;2023-02-01T12:58:51;9.15;;;3.65;;
34902;SDS011;21114;44.840;0.214;2023-02-01T13:01:53;7.65;;;3.35;;
34902;SDS011;21114;44.840;0.214;2023-02-01T13:10:37;9.10;;;4.75;;
34902;SDS011;21114;44.840;0.214;2023-02-01T13:13:57;5.85;;;3.88;;
34902;SDS011;21114;44.840;0.214;2023-02-01T13:17:18;5.97;;;3.58;;
34902;SDS011;21114;44.840;0.214;2023-02-01T13:20:36;9.32;;;5.00;;
34902;SDS011;21114;44.840;0.214;2023-02-01T13:23:51;7.72;;;3.25;;
34902;SDS011;21114;44.840;0.214;2023-02-01T13:27:09;6.35;;;3.08;;
34902;SDS011;21114;44.840;0.214;2023-02-01T13:44:45;6.28;;;1.98;;
34902;SDS011;21114;44.840;0.214;2023-02-01T13:47:50;3.97;;;1.60;;
34902;SDS011;21114;44.840;0.214;2023-02-01T13:51:05;3.97;;;2.17;;
34902;SDS011;21114;44.840;0.214;2023-02-01T13:57:13;3.47;;;2.25;;
34902;SDS011;21114;44.840;0.214;2023-02-01T14:00:31;5.65;;;1.80;;
34902;SDS011;21114;44.840;0.214;2023-02-01T14:03:48;6.05;;;2.55;;
34902;SDS011;21114;44.840;0.214;2023-02-01T14:07:03;12.63;;;3.00;;
34902;SDS011;21114;44.840;0.214;2023-02-01T14:09:31;5.97;;;2.17;;
34902;SDS011;21114;44.840;0.214;2023-02-01T14:12:47;3.92;;;2.13;;
34902;SDS011;21114;44.840;0.214;2023-02-01T14:24:00;4.55;;;1.80;;
34902;SDS011;21114;44.840;0.214;2023-02-01T14:27:18;3.30;;;1.73;;
34902;SDS011;21114;44.840;0.214;2023-02-01T14:30:34;4.60;;;1.73;;
34902;SDS011;21114;44.840;0.214;2023-02-01T14:33:48;5.38;;;2.22;;
34902;SDS011;21114;44.840;0.214;2023-02-01T14:36:14;3.13;;;1.30;;
34902;SDS011;21114;44.840;0.214;2023-02-01T14:38:47;6.95;;;2.60;;
34902;SDS011;21114;44.840;0.214;2023-02-01T14:42:04;4.60;;;2.35;;
34902;SDS011;21114;44.840;0.214;2023-02-01T14:50:47;2.00;;;1.00;;
34902;SDS011;21114;44.840;0.214;2023-02-01T14:53:51;1.95;;;1.52;;
34902;SDS011;21114;44.840;0.214;2023-02-01T14:56:17;5.93;;;1.70;;
34902;SDS011;21114;44.840;0.214;2023-02-01T14:59:32;3.38;;;1.30;;
34902;SDS011;21114;44.840;0.214;2023-02-01T15:02:01;3.03;;;1.38;;
34902;SDS011;21114;44.840;0.214;2023-02-01T15:04:53;4.72;;;1.65;;
34902;SDS011;21114;44.840;0.214;2023-02-01T15:07:46;2.70;;;1.40;;
34902;SDS011;21114;44.840;0.214;2023-02-01T15:11:01;3.42;;;2.03;;
34902;SDS011;21114;44.840;0.214;2023-02-01T15:14:16;4.00;;;1.55;;
34902;SDS011;21114;44.840;0.214;2023-02-01T15:16:42;6.85;;;1.48;;
34902;SDS011;21114;44.840;0.214;2023-02-01T15:19:14;6.00;;;2.00;;
34902;SDS011;21114;44.840;0.214;2023-02-01T15:21:43;4.00;;;1.75;;
34902;SDS011;21114;44.840;0.214;2023-02-01T15:24:52;2.90;;;1.85;;
34902;SDS011;21114;44.840;0.214;2023-02-01T15:28:12;7.70;;;2.53;;
34902;SDS011;21114;44.840;0.214;2023-02-01T15:31:35;5.15;;;1.83;;
34902;SDS011;21114;44.840;0.214;2023-02-01T15:34:52;4.10;;;1.95;;
34902;SDS011;21114;44.840;0.214;2023-02-01T15:37:20;2.97;;;1.30;;
34902;SDS011;21114;44.840;0.214;2023-02-01T15:40:34;2.28;;;1.65;;
34902;SDS011;21114;44.840;0.214;2023-02-01T15:43:00;4.72;;;2.50;;
34902;SDS011;21114;44.840;0.214;2023-02-01T15:46:17;6.15;;;1.60;;
34902;SDS011;21114;44.840;0.214;2023-02-01T15:49:35;5.85;;;1.88;;
34902;SDS011;21114;44.840;0.214;2023-02-01T15:52:51;8.00;;;2.97;;
34902;SDS011;21114;44.840;0.214;2023-02-01T15:56:06;4.43;;;1.85;;
34902;SDS011;21114;44.840;0.214;2023-02-01T15:58:32;2.70;;;1.50;;
34902;SDS011;21114;44.840;0.214;2023-02-01T16:01:47;4.43;;;2.28;;
34902;SDS011;21114;44.840;0.214;2023-02-01T16:05:04;5.55;;;1.58;;
34902;SDS011;21114;44.840;0.214;2023-02-01T16:08:21;2.58;;;1.00;;
34902;SDS011;21114;44.840;0.214;2023-02-01T16:14:30;5.35;;;1.58;;
34902;SDS011;21114;44.840;0.214;2023-02-01T16:16:58;2.03;;;1.77;;
34902;SDS011;21114;44.840;0.214;2023-02-01T16:20:12;1.70;;;1.23;;
34902;SDS011;21114;44.840;0.214;2023-02-01T16:22:38;4.13;;;1.27;;
34902;SDS011;21114;44.840;0.214;2023-02-01T16:25:04;9.52;;;7.40;;
34902;SDS011;21114;44.840;0.214;2023-02-01T16:27:31;29.65;;;22.98;;
34902;SDS011;21114;44.840;0.214;2023-02-01T16:29:57;14.85;;;4.53;;
34902;SDS011;21114;44.840;0.214;2023-02-01T16:32:23;2.85;;;2.15;;
34902;SDS011;21114;44.840;0.214;2023-02-01T16:34:49;6.03;;;4.43;;
34902;SDS011;21114;44.840;0.214;2023-02-01T16:37:16;13.75;;;10.02;;
34902;SDS011;21114;44.840;0.214;2023-02-01T16:40:36;6.93;;;4.15;;
34902;SDS011;21114;44.840;0.214;2023-02-01T16:43:05;5.03;;;2.83;;
34902;SDS011;21114;44.840;0.214;2023-02-01T16:46:23;7.72;;;5.20;;
34902;SDS011;21114;44.840;0.214;2023-02-01T16:49:38;5.75;;;3.60;;
34902;SDS011;21114;44.840;0.214;2023-02-01T16:52:48;3.90;;;2.55;;
34902;SDS011;21114;44.840;0.214;2023-02-01T16:55:15;3.45;;;1.60;;
34902;SDS011;21114;44.840;0.214;2023-02-01T16:58:31;8.30;;;5.15;;
34902;SDS011;21114;44.840;0.214;2023-02-01T17:00:57;5.45;;;3.60;;
34902;SDS011;21114;44.840;0.214;2023-02-01T17:03:23;5.45;;;2.47;;
34902;SDS011;21114;44.840;0.214;2023-02-01T17:05:50;34.10;;;24.48;;
34902;SDS011;21114;44.840;0.214;2023-02-01T17:09:06;19.42;;;14.10;;
34902;SDS011;21114;44.840;0.214;2023-02-01T17:11:32;13.50;;;9.35;;
34902;SDS011;21114;44.840;0.214;2023-02-01T17:16:52;5.80;;;2.30;;
34902;SDS011;21114;44.840;0.214;2023-02-01T17:19:19;7.28;;;3.45;;
34902;SDS011;21114;44.840;0.214;2023-02-01T17:22:35;16.80;;;9.05;;
34902;SDS011;21114;44.840;0.214;2023-02-01T17:25:01;12.38;;;6.47;;
34902;SDS011;21114;44.840;0.214;2023-02-01T17:27:27;17.50;;;8.55;;
34902;SDS011;21114;44.840;0.214;2023-02-01T17:29:54;9.35;;;5.28;;
34902;SDS011;21114;44.840;0.214;2023-02-01T17:32:22;12.95;;;7.57;;
34902;SDS011;21114;44.840;0.214;2023-02-01T17:35:36;7.22;;;4.25;;
34902;SDS011;21114;44.840;0.214;2023-02-01T17:38:02;8.63;;;4.25;;
34902;SDS011;21114;44.840;0.214;2023-02-01T17:40:29;7.10;;;4.65;;
34902;SDS011;21114;44.840;0.214;2023-02-01T17:42:55;7.40;;;5.60;;
34902;SDS011;21114;44.840;0.214;2023-02-01T17:45:25;13.57;;;7.65;;
34902;SDS011;21114;44.840;0.214;2023-02-01T17:48:41;6.13;;;4.68;;
34902;SDS011;21114;44.840;0.214;2023-02-01T17:51:16;10.88;;;5.20;;
34902;SDS011;21114;44.840;0.214;2023-02-01T17:54:30;3.38;;;2.33;;
34902;SDS011;21114;44.840;0.214;2023-02-01T17:56:57;4.30;;;2.28;;
34902;SDS011;21114;44.840;0.214;2023-02-01T18:00:12;5.05;;;3.85;;
34902;SDS011;21114;44.840;0.214;2023-02-01T18:02:39;2.83;;;1.80;;
34902;SDS011;21114;44.840;0.214;2023-02-01T18:07:59;21.40;;;14.77;;
34902;SDS011;21114;44.840;0.214;2023-02-01T18:10:25;31.83;;;22.80;;
34902;SDS011;21114;44.840;0.214;2023-02-01T18:12:51;7.70;;;3.85;;
34902;SDS011;21114;44.840;0.214;2023-02-01T18:15:18;8.95;;;6.63;;
34902;SDS011;21114;44.840;0.214;2023-02-01T18:18:33;6.00;;;4.00;;
34902;SDS011;21114;44.840;0.214;2023-02-01T18:20:59;4.40;;;2.80;;
34902;SDS011;21114;44.840;0.214;2023-02-01T18:24:14;4.97;;;3.30;;
34902;SDS011;21114;44.840;0.214;2023-02-01T18:27:28;4.45;;;3.20;;
34902;SDS011;21114;44.840;0.214;2023-02-01T18:29:54;7.10;;;3.75;;
34902;SDS011;21114;44.840;0.214;2023-02-01T18:32:20;8.27;;;6.57;;
34902;SDS011;21114;44.840;0.214;2023-02-01T18:34:46;14.07;;;11.57;;
34902;SDS011;21114;44.840;0.214;2023-02-01T18:37:12;11.27;;;9.45;;
34902;SDS011;21114;44.840;0.214;2023-02-01T18:39:39;13.68;;;10.30;;
34902;SDS011;21114;44.840;0.214;2023-02-01T18:42:05;11.10;;;8.73;;
34902;SDS011;21114;44.840;0.214;2023-02-01T18:48:00;10.80;;;7.45;;
34902;SDS011;21114;44.840;0.214;2023-02-01T18:51:16;7.95;;;6.50;;
34902;SDS011;21114;44.840;0.214;2023-02-01T18:54:30;7.28;;;5.90;;
34902;SDS011;21114;44.840;0.214;2023-02-01T18:56:56;6.68;;;5.82;;